Time;durP1;ratioP1;P1;durP2;ratioP2;P2;SDS_P1;SDS_P2;PMS_P1;PMS_P2;Temp;Humidity;BMP_temperature;BMP_pressure;BME280_temperature;BME280_humidity;BME280_pressure;Samples;Min_cycle;Max_cycle;Signal;HPM_P1;HPM_P2
2022/07/28 00:00:10;;;;;;;3.95;2.20;;;13.90;99.90;;;;;;5075928;28;20627;-68
2022/07/28 00:02:36;;;;;;;4.82;2.70;;;13.90;99.90;;;;;;5091746;28;20193;-68
2022/07/28 00:05:03;;;;;;;2.70;2.50;;;13.90;99.90;;;;;;5091694;28;20228;-68
2022/07/28 00:07:29;;;;;;;5.60;2.83;;;13.80;99.90;;;;;;5076155;28;20182;-68
2022/07/28 00:09:55;;;;;;;4.50;2.70;;;13.70;99.90;;;;;;5076086;28;20639;-67
2022/07/28 00:12:21;;;;;;;5.43;2.58;;;13.70;99.90;;;;;;5076300;28;20205;-68
2022/07/28 00:14:47;;;;;;;4.85;2.35;;;13.70;99.90;;;;;;5075840;28;20190;-68
2022/07/28 00:17:12;;;;;;;5.38;2.92;;;13.70;99.90;;;;;;5091484;28;20248;-67
2022/07/28 00:19:38;;;;;;;2.67;2.42;;;13.70;99.90;;;;;;5076007;28;20169;-68
2022/07/28 00:22:05;;;;;;;3.75;2.63;;;13.60;99.90;;;;;;5091556;28;20202;-68
2022/07/28 00:24:31;;;;;;;4.32;2.75;;;13.60;99.90;;;;;;5075753;28;20190;-68
2022/07/28 00:26:57;;;;;;;3.95;2.45;;;13.60;99.90;;;;;;5091527;28;20177;-68
2022/07/28 00:29:22;;;;;;;3.92;2.60;;;13.60;99.90;;;;;;5075758;28;20181;-67
2022/07/28 00:31:48;;;;;;;2.90;2.35;;;13.60;99.90;;;;;;5075499;28;20182;-68
2022/07/28 00:34:14;;;;;;;2.70;2.25;;;13.60;99.90;;;;;;5075878;28;20221;-67
2022/07/28 00:36:39;;;;;;;5.32;3.08;;;13.60;99.90;;;;;;5076045;28;20219;-68
2022/07/28 00:39:05;;;;;;;4.78;2.65;;;13.60;99.90;;;;;;5075951;28;20189;-68
2022/07/28 00:41:31;;;;;;;5.32;2.72;;;13.50;99.90;;;;;;5076441;28;20181;-69
2022/07/28 00:43:57;;;;;;;5.78;2.63;;;13.50;99.90;;;;;;5075506;28;20658;-69
2022/07/28 00:46:23;;;;;;;2.95;2.47;;;13.50;99.90;;;;;;5075891;28;20166;-68
2022/07/28 00:48:51;;;;;;;3.15;2.53;;;13.50;99.90;;;;;;5075808;28;20166;-67
2022/07/28 00:51:19;;;;;;;3.05;2.58;;;13.50;99.90;;;;;;5075482;28;20177;-68
2022/07/28 00:53:46;;;;;;;3.30;2.38;;;13.50;99.90;;;;;;5075320;28;20190;-68
2022/07/28 00:56:12;;;;;;;3.00;2.50;;;13.50;99.90;;;;;;5075452;28;20185;-67
2022/07/28 00:58:39;;;;;;;2.95;2.60;;;13.50;99.90;;;;;;5075007;28;20631;-67
2022/07/28 01:01:06;;;;;;;3.53;2.25;;;13.50;99.90;;;;;;5075308;28;20181;-68
2022/07/28 01:03:35;;;;;;;2.53;2.33;;;13.40;99.90;;;;;;5075146;28;20296;-67
2022/07/28 01:06:38;;;;;;;2.75;2.55;;;13.40;99.90;;;;;;5075172;28;20188;-68
2022/07/28 01:09:34;;;;;;;4.68;2.63;;;13.30;99.90;;;;;;5075479;28;20173;-67
2022/07/28 01:12:17;;;;;;;3.83;2.50;;;13.20;99.90;;;;;;5090910;28;20549;-68
2022/07/28 01:15:04;;;;;;;4.65;2.55;;;13.20;99.90;;;;;;5075208;28;20194;-67
2022/07/28 01:17:57;;;;;;;2.85;2.60;;;13.10;99.90;;;;;;5074739;28;20292;-68
2022/07/28 01:20:43;;;;;;;5.10;2.60;;;13.10;99.90;;;;;;5075014;28;20560;-68
2022/07/28 01:23:30;;;;;;;2.70;2.50;;;13.00;99.90;;;;;;5075139;28;20208;-64
2022/07/28 01:26:37;;;;;;;3.47;2.67;;;13.00;99.90;;;;;;5074926;28;20188;-65
2022/07/28 01:29:29;;;;;;;3.65;2.70;;;13.00;99.90;;;;;;5073664;28;20188;-65
2022/07/28 01:32:03;;;;;;;5.10;2.45;;;12.90;99.90;;;;;;5056860;28;20541;-69
2022/07/28 01:34:35;;;;;;;3.40;2.47;;;12.90;99.90;;;;;;5074752;28;20197;-65
2022/07/28 01:37:15;;;;;;;4.65;2.60;;;12.90;99.90;;;;;;5090515;28;20322;-66
2022/07/28 01:39:42;;;;;;;4.13;3.00;;;12.90;99.90;;;;;;5094541;28;20704;-65
2022/07/28 01:42:11;;;;;;;3.28;2.88;;;12.90;99.90;;;;;;5077918;28;20196;-65
2022/07/28 01:44:41;;;;;;;6.28;2.70;;;12.90;99.90;;;;;;5078004;28;20198;-65
2022/07/28 01:47:08;;;;;;;3.85;2.67;;;12.80;99.90;;;;;;5076915;28;20185;-65
2022/07/28 01:49:35;;;;;;;3.42;2.60;;;12.80;99.90;;;;;;5081143;28;20251;-65
2022/07/28 01:52:05;;;;;;;3.70;2.70;;;12.80;99.90;;;;;;5079265;28;20235;-65
2022/07/28 01:54:31;;;;;;;4.88;3.03;;;12.80;99.90;;;;;;5074601;28;20190;-65
2022/07/28 01:56:59;;;;;;;5.55;2.90;;;12.80;99.90;;;;;;5074587;28;20200;-66
2022/07/28 01:59:28;;;;;;;4.80;2.80;;;12.70;99.90;;;;;;5089568;28;20181;-65
2022/07/28 02:01:54;;;;;;;5.22;2.75;;;12.70;99.90;;;;;;5074240;28;20537;-65
2022/07/28 02:04:23;;;;;;;5.73;2.60;;;12.60;99.90;;;;;;5074024;28;20205;-65
2022/07/28 02:06:51;;;;;;;5.70;3.00;;;12.60;99.90;;;;;;5073987;28;20197;-65
2022/07/28 02:09:20;;;;;;;3.35;2.75;;;12.60;99.90;;;;;;5074074;28;20256;-65
2022/07/28 02:11:48;;;;;;;4.87;3.13;;;12.50;99.90;;;;;;5074030;28;20582;-65
2022/07/28 02:14:17;;;;;;;3.42;2.88;;;12.50;99.90;;;;;;5073638;28;20202;-66
2022/07/28 02:16:57;;;;;;;5.53;2.80;;;12.50;99.90;;;;;;5073764;28;20205;-65
2022/07/28 02:19:25;;;;;;;6.40;3.03;;;12.60;99.90;;;;;;5074044;28;20158;-66
2022/07/28 02:21:53;;;;;;;4.55;3.00;;;12.50;99.90;;;;;;5073921;28;20174;-65
2022/07/28 02:24:25;;;;;;;4.63;2.77;;;12.50;99.90;;;;;;5074027;28;20190;-65
2022/07/28 02:26:58;;;;;;;6.45;2.92;;;12.50;99.90;;;;;;5089370;28;20166;-65
2022/07/28 02:29:26;;;;;;;6.07;3.03;;;12.50;99.90;;;;;;5089146;28;20219;-65
2022/07/28 02:32:07;;;;;;;3.60;2.40;;;12.50;99.90;;;;;;5055564;28;20519;-65
2022/07/28 02:34:37;;;;;;;3.83;2.70;;;12.50;99.90;;;;;;5073771;28;20205;-65
2022/07/28 02:37:05;;;;;;;7.00;3.00;;;12.40;99.90;;;;;;5073832;28;20193;-65
2022/07/28 02:39:42;;;;;;;5.10;2.80;;;12.40;99.90;;;;;;5073689;28;20193;-65
2022/07/28 02:42:18;;;;;;;7.40;3.20;;;12.40;99.90;;;;;;5074113;28;20610;-65
2022/07/28 02:44:48;;;;;;;3.33;2.83;;;12.30;99.90;;;;;;5088870;28;20197;-65
2022/07/28 02:47:21;;;;;;;5.03;2.80;;;12.30;99.90;;;;;;5073745;28;20164;-65
2022/07/28 02:49:50;;;;;;;2.87;2.40;;;12.30;99.90;;;;;;5073832;28;20166;-65
2022/07/28 02:52:17;;;;;;;4.65;3.20;;;12.30;99.90;;;;;;5073781;28;20634;-66
2022/07/28 02:54:44;;;;;;;2.77;2.57;;;12.20;99.90;;;;;;5076160;28;20261;-65
2022/07/28 02:57:12;;;;;;;7.67;3.00;;;12.20;99.90;;;;;;5077169;28;20201;-65
2022/07/28 02:59:39;;;;;;;4.00;3.20;;;12.20;99.90;;;;;;5076912;28;20174;-65
2022/07/28 03:02:06;;;;;;;4.90;2.53;;;12.10;99.90;;;;;;5092824;28;20173;-66
2022/07/28 03:07:17;;;;;;;3.30;3.00;;;12.00;99.90;;;;;;5077660;28;20231;-65
2022/07/28 03:09:46;;;;;;;4.17;3.10;;;12.00;99.90;;;;;;5076919;28;20170;-65
2022/07/28 03:12:12;;;;;;;5.47;2.80;;;12.10;99.90;;;;;;5076978;28;20702;-65
2022/07/28 03:14:38;;;;;;;4.40;2.90;;;12.10;99.90;;;;;;5076894;28;20194;-64
2022/07/28 03:17:05;;;;;;;3.10;2.73;;;12.00;99.90;;;;;;5076948;28;20580;-64
2022/07/28 03:19:31;;;;;;;6.23;2.93;;;12.00;99.90;;;;;;5092687;28;20635;-64
2022/07/28 03:21:57;;;;;;;4.87;3.10;;;11.90;99.90;;;;;;5077132;28;20174;-64
2022/07/28 03:24:26;;;;;;;6.43;3.30;;;11.90;99.90;;;;;;5076752;28;20235;-64
2022/07/28 03:27:00;;;;;;;3.27;2.93;;;11.80;99.90;;;;;;5076960;28;20227;-64
2022/07/28 03:29:29;;;;;;;3.77;2.90;;;11.80;99.90;;;;;;5076538;28;20234;-64
2022/07/28 03:31:57;;;;;;;2.93;2.70;;;11.70;99.90;;;;;;5077159;28;20151;-65
2022/07/28 03:34:23;;;;;;;4.50;2.97;;;11.70;99.90;;;;;;5076423;28;20204;-64
2022/07/28 03:37:07;;;;;;;4.27;3.13;;;11.70;99.90;;;;;;5076340;28;20563;-64
2022/07/28 03:39:39;;;;;;;5.97;3.23;;;11.70;99.90;;;;;;5076500;28;20163;-64
2022/07/28 03:42:07;;;;;;;3.37;2.90;;;11.70;99.90;;;;;;5076457;28;20297;-64
2022/07/28 03:44:33;;;;;;;3.83;3.20;;;11.60;99.90;;;;;;5076330;28;20241;-64
2022/07/28 03:46:59;;;;;;;3.67;2.93;;;11.60;99.90;;;;;;5076513;28;20170;-64
2022/07/28 03:49:25;;;;;;;3.40;2.90;;;11.60;99.90;;;;;;5076338;28;20681;-64
2022/07/28 03:51:51;;;;;;;5.03;3.63;;;11.60;99.90;;;;;;5076493;28;20602;-64
2022/07/28 03:54:16;;;;;;;7.03;3.20;;;11.70;99.90;;;;;;5076149;28;20270;-64
2022/07/28 03:56:42;;;;;;;4.87;3.17;;;11.70;99.90;;;;;;5076127;28;20724;-64
2022/07/28 03:59:10;;;;;;;7.03;3.50;;;11.70;99.90;;;;;;5075834;28;20224;-63
2022/07/28 04:01:36;;;;;;;6.53;3.50;;;11.70;99.90;;;;;;5076118;28;20349;-64
2022/07/28 04:04:01;;;;;;;8.57;3.30;;;11.80;99.90;;;;;;5091805;28;20611;-64
2022/07/28 04:06:27;;;;;;;5.13;3.20;;;11.80;99.90;;;;;;5075425;28;20180;-64
2022/07/28 04:08:53;;;;;;;6.90;3.63;;;11.70;99.90;;;;;;5076296;28;20169;-64
2022/07/28 04:11:19;;;;;;;7.33;3.90;;;11.70;99.90;;;;;;5075890;28;20678;-65
2022/07/28 04:13:44;;;;;;;6.80;3.40;;;11.70;99.90;;;;;;5076205;28;20265;-65
2022/07/28 04:16:10;;;;;;;6.30;3.33;;;11.70;99.90;;;;;;5091166;28;20194;-64
2022/07/28 04:18:36;;;;;;;5.57;3.77;;;11.70;99.90;;;;;;5075920;28;20635;-65
2022/07/28 04:21:02;;;;;;;6.70;3.33;;;11.60;99.90;;;;;;5076164;28;20166;-64
2022/07/28 04:23:29;;;;;;;6.57;3.50;;;11.60;99.90;;;;;;5075670;28;20186;-64
2022/07/28 04:25:55;;;;;;;4.83;3.57;;;11.60;99.90;;;;;;5075627;28;20172;-64
2022/07/28 04:28:21;;;;;;;4.80;3.17;;;11.60;99.90;;;;;;5075715;28;20182;-64
2022/07/28 04:30:46;;;;;;;5.43;3.57;;;11.60;99.90;;;;;;5075286;28;20544;-64
2022/07/28 04:33:12;;;;;;;6.43;3.20;;;11.60;99.90;;;;;;5075392;28;20227;-64
2022/07/28 04:35:38;;;;;;;5.20;3.57;;;11.70;99.90;;;;;;5075293;28;20227;-64
2022/07/28 04:38:04;;;;;;;6.50;3.87;;;11.80;99.90;;;;;;5076253;28;20229;-67
2022/07/28 04:40:30;;;;;;;4.40;3.70;;;11.80;99.90;;;;;;5090929;28;20173;-67
2022/07/28 04:42:56;;;;;;;6.27;4.10;;;11.90;99.90;;;;;;5075888;28;20526;-67
2022/07/28 04:45:22;;;;;;;7.87;3.80;;;11.80;99.90;;;;;;5074810;28;20268;-68
2022/07/28 04:47:47;;;;;;;6.33;3.90;;;11.90;99.90;;;;;;5075117;28;20177;-68
2022/07/28 04:50:19;;;;;;;8.83;3.90;;;12.00;99.90;;;;;;5075167;28;20639;-68
2022/07/28 04:52:48;;;;;;;5.57;3.93;;;12.00;99.90;;;;;;5075284;28;20165;-68
2022/07/28 04:55:13;;;;;;;5.03;3.77;;;12.00;99.90;;;;;;5075122;28;20662;-67
2022/07/28 04:57:39;;;;;;;5.20;3.60;;;12.10;99.90;;;;;;5074951;28;20280;-68
2022/07/28 05:00:13;;;;;;;7.80;4.13;;;12.20;99.90;;;;;;5074611;28;20200;-67
2022/07/28 05:02:40;;;;;;;7.17;4.37;;;12.30;99.90;;;;;;5075191;28;20150;-68
2022/07/28 05:05:07;;;;;;;7.90;3.97;;;12.40;99.90;;;;;;5074841;28;20217;-67
2022/07/28 05:07:33;;;;;;;9.20;4.60;;;12.40;99.90;;;;;;5075157;28;20529;-68
2022/07/28 05:09:58;;;;;;;8.07;4.80;;;12.50;99.90;;;;;;5074939;28;20174;-68
2022/07/28 05:12:24;;;;;;;7.40;5.03;;;12.50;99.90;;;;;;5074621;28;20600;-68
2022/07/28 05:14:50;;;;;;;9.97;4.87;;;12.50;99.90;;;;;;5074624;28;20200;-68
2022/07/28 05:17:16;;;;;;;8.47;4.90;;;12.50;99.90;;;;;;5073523;28;20615;-68
2022/07/28 05:19:41;;;;;;;7.67;4.97;;;12.50;99.90;;;;;;5074985;28;20198;-68
2022/07/28 05:22:07;;;;;;;6.13;4.70;;;12.50;99.90;;;;;;5074683;28;20174;-68
2022/07/28 05:24:33;;;;;;;8.33;5.17;;;12.50;99.90;;;;;;5074422;28;20307;-70
2022/07/28 05:26:58;;;;;;;8.97;5.03;;;12.50;99.90;;;;;;5090003;28;20654;-68
2022/07/28 05:29:24;;;;;;;4.97;4.10;;;12.50;99.90;;;;;;5074181;28;20198;-66
2022/07/28 05:31:50;;;;;;;9.07;4.73;;;12.60;99.90;;;;;;5074078;28;20658;-68
2022/07/28 05:34:16;;;;;;;10.10;4.83;;;12.60;99.90;;;;;;5073868;28;20217;-68
2022/07/28 05:36:41;;;;;;;11.63;5.07;;;12.70;99.90;;;;;;5073900;28;20170;-67
2022/07/28 05:39:07;;;;;;;6.70;4.90;;;12.80;99.90;;;;;;5074341;28;20531;-68
2022/07/28 05:41:33;;;;;;;4.93;4.23;;;12.80;99.90;;;;;;5073901;28;20677;-67
2022/07/28 05:44:00;;;;;;;8.40;4.43;;;12.90;99.90;;;;;;5073796;28;20556;-68
2022/07/28 05:46:26;;;;;;;9.00;4.28;;;12.90;99.90;;;;;;5073635;28;20303;-68
2022/07/28 05:48:52;;;;;;;7.40;5.10;;;13.00;99.90;;;;;;5073757;28;20182;-68
2022/07/28 05:51:18;;;;;;;6.50;4.50;;;13.00;99.90;;;;;;5073737;28;20185;-67
2022/07/28 05:53:43;;;;;;;7.43;4.85;;;13.00;99.90;;;;;;5073648;28;20205;-67
2022/07/28 05:56:09;;;;;;;6.23;4.43;;;13.10;99.90;;;;;;5073697;28;20178;-67
2022/07/28 05:58:35;;;;;;;7.53;4.80;;;13.20;99.90;;;;;;5089302;28;20216;-67
2022/07/28 06:01:02;;;;;;;8.98;5.13;;;13.20;99.90;;;;;;5073350;28;20158;-68
2022/07/28 06:03:30;;;;;;;10.55;5.18;;;13.30;99.90;;;;;;5089080;28;20660;-66
2022/07/28 06:05:56;;;;;;;6.80;4.47;;;13.30;99.90;;;;;;5089570;28;20196;-63
2022/07/28 06:08:25;;;;;;;7.80;5.13;;;13.30;99.90;;;;;;5073619;28;20174;-64
2022/07/28 06:11:01;;;;;;;11.43;5.07;;;13.50;99.90;;;;;;5073508;28;20170;-63
2022/07/28 06:13:28;;;;;;;5.65;4.20;;;13.60;99.90;;;;;;5088983;28;20203;-63
2022/07/28 06:15:54;;;;;;;9.32;4.40;;;13.70;99.90;;;;;;5088921;28;20194;-67
2022/07/28 06:18:20;;;;;;;6.75;4.35;;;13.80;99.90;;;;;;5073603;28;20599;-66
2022/07/28 06:20:47;;;;;;;7.00;4.40;;;13.90;99.90;;;;;;5073626;28;20260;-66
2022/07/28 06:23:16;;;;;;;9.55;4.70;;;14.00;99.90;;;;;;5073299;28;20177;-66
2022/07/28 06:25:42;;;;;;;5.32;3.38;;;14.00;99.90;;;;;;5073479;28;20638;-67
2022/07/28 06:28:08;;;;;;;5.45;4.20;;;14.10;99.90;;;;;;5073288;28;20184;-68
2022/07/28 06:30:37;;;;;;;6.57;4.40;;;14.20;99.90;;;;;;5073373;28;20295;-67
2022/07/28 06:33:04;;;;;;;7.28;4.30;;;14.20;99.90;;;;;;5089412;28;20205;-67
2022/07/28 06:35:38;;;;;;;6.93;3.80;;;14.30;99.90;;;;;;5089372;28;20705;-67
2022/07/28 06:38:04;;;;;;;7.88;4.10;;;14.30;99.90;;;;;;5089113;28;20202;-67
2022/07/28 06:40:30;;;;;;;3.70;3.17;;;14.40;99.90;;;;;;5073783;28;20299;-67
2022/07/28 06:42:56;;;;;;;7.93;4.30;;;14.50;99.90;;;;;;5073159;28;20174;-70
2022/07/28 06:45:22;;;;;;;14.20;3.72;;;14.60;99.90;;;;;;5072972;28;20204;-66
2022/07/28 06:47:49;;;;;;;5.15;3.03;;;14.70;99.90;;;;;;5088777;28;20184;-67
2022/07/28 06:50:15;;;;;;;7.65;3.20;;;14.80;99.90;;;;;;5073456;28;20158;-66
2022/07/28 06:52:41;;;;;;;5.18;3.10;;;14.90;99.90;;;;;;5073162;28;20193;-66
2022/07/28 06:55:07;;;;;;;5.07;3.22;;;15.00;99.90;;;;;;5073137;28;20241;-66
2022/07/28 06:57:34;;;;;;;5.50;2.88;;;15.20;99.90;;;;;;5073220;28;20197;-66
2022/07/28 07:00:05;;;;;;;2.85;2.50;;;15.30;99.90;;;;;;5073132;28;20180;-67
2022/07/28 07:02:31;;;;;;;4.70;2.72;;;15.40;99.90;;;;;;5072978;28;20241;-67
2022/07/28 07:04:56;;;;;;;3.92;2.80;;;15.60;99.90;;;;;;5072968;28;20277;-66
2022/07/28 07:07:22;;;;;;;7.93;3.22;;;15.70;99.90;;;;;;5073395;28;20169;-66
2022/07/28 07:09:48;;;;;;;5.40;2.65;;;15.80;99.90;;;;;;5072966;28;20247;-66
2022/07/28 07:12:14;;;;;;;5.47;3.10;;;15.90;99.90;;;;;;5072926;28;20181;-66
2022/07/28 07:14:40;;;;;;;5.65;2.95;;;16.00;99.90;;;;;;5073113;28;20200;-66
2022/07/28 07:17:05;;;;;;;6.63;3.00;;;16.00;99.90;;;;;;5072419;28;20209;-66
2022/07/28 07:19:31;;;;;;;5.47;2.88;;;16.10;99.90;;;;;;5073523;28;20231;-66
2022/07/28 07:21:57;;;;;;;6.07;2.80;;;16.20;99.90;;;;;;5072915;28;20279;-67
2022/07/28 07:24:23;;;;;;;6.38;2.63;;;16.30;99.90;;;;;;5073045;28;20550;-66
2022/07/28 07:26:49;;;;;;;4.40;2.70;;;16.40;99.90;;;;;;5055063;28;20178;-66
2022/07/28 07:29:15;;;;;;;5.95;2.60;;;16.50;99.90;;;;;;5088308;28;20546;-67
2022/07/28 07:31:40;;;;;;;5.10;2.70;;;16.60;99.90;;;;;;5072841;28;20162;-66
2022/07/28 07:34:06;;;;;;;4.82;2.70;;;16.70;99.90;;;;;;5074903;28;20285;-66
2022/07/28 07:36:32;;;;;;;4.70;2.55;;;16.90;99.90;;;;;;5073160;28;20212;-67
2022/07/28 07:38:58;;;;;;;6.38;2.90;;;17.00;99.90;;;;;;5072942;28;20185;-67
2022/07/28 07:41:24;;;;;;;4.43;2.70;;;17.00;99.90;;;;;;5075967;28;20531;-67
2022/07/28 07:43:50;;;;;;;6.50;2.90;;;17.10;99.90;;;;;;5077188;28;20559;-66
2022/07/28 07:46:16;;;;;;;7.93;2.83;;;17.20;99.90;;;;;;5076431;28;20174;-67
2022/07/28 07:48:42;;;;;;;2.92;2.17;;;17.20;99.90;;;;;;5076363;28;20676;-67
2022/07/28 07:51:08;;;;;;;5.97;3.08;;;17.30;99.90;;;;;;5091951;28;20185;-67
2022/07/28 07:53:34;;;;;;;5.78;2.20;;;17.40;99.90;;;;;;5076452;28;20658;-66
2022/07/28 07:56:00;;;;;;;5.38;2.75;;;17.40;99.90;;;;;;5092362;28;20598;-63
2022/07/28 07:58:26;;;;;;;8.30;2.50;;;17.40;99.90;;;;;;5075966;28;20240;-63
2022/07/28 08:00:52;;;;;;;2.97;2.22;;;17.50;99.90;;;;;;5075769;28;20197;-64
2022/07/28 08:03:18;;;;;;;3.70;2.40;;;17.50;99.90;;;;;;5076104;28;20196;-64
2022/07/28 08:05:44;;;;;;;7.80;2.60;;;17.60;99.90;;;;;;5075918;28;20185;-64
2022/07/28 08:08:10;;;;;;;5.63;2.80;;;17.70;99.90;;;;;;5076259;28;20170;-64
2022/07/28 08:10:37;;;;;;;4.00;2.30;;;17.70;99.90;;;;;;5075937;28;20373;-64
2022/07/28 08:13:05;;;;;;;6.03;2.75;;;17.70;99.90;;;;;;5075949;28;20197;-64
2022/07/28 08:15:31;;;;;;;6.13;2.40;;;17.80;99.90;;;;;;5076252;28;20178;-64
2022/07/28 08:17:57;;;;;;;3.75;2.10;;;17.80;99.90;;;;;;5092052;28;20208;-64
2022/07/28 08:20:23;;;;;;;5.40;2.60;;;17.90;99.90;;;;;;5075939;28;20162;-64
2022/07/28 08:22:50;;;;;;;6.38;2.50;;;17.90;99.90;;;;;;5091281;28;20177;-64
2022/07/28 08:25:16;;;;;;;4.55;2.58;;;18.00;99.90;;;;;;5091492;28;20198;-67
2022/07/28 08:27:42;;;;;;;6.53;2.47;;;18.00;99.90;;;;;;5075867;28;20255;-67
2022/07/28 08:30:09;;;;;;;4.25;2.22;;;18.10;99.90;;;;;;5075282;28;20178;-66
2022/07/28 08:32:35;;;;;;;6.13;2.50;;;18.10;99.90;;;;;;5075545;28;20579;-67
2022/07/28 08:35:00;;;;;;;4.93;2.42;;;18.20;99.90;;;;;;5075175;28;20206;-67
2022/07/28 08:37:26;;;;;;;5.70;2.25;;;18.30;99.90;;;;;;5075205;28;20247;-67
2022/07/28 08:39:52;;;;;;;8.68;2.67;;;18.40;99.90;;;;;;5091038;28;20177;-67
2022/07/28 08:42:34;;;;;;;5.75;2.30;;;18.50;99.90;;;;;;5075238;28;20174;-67
2022/07/28 08:45:07;;;;;;;6.32;2.92;;;18.60;99.90;;;;;;5091937;28;20615;-67
2022/07/28 08:47:36;;;;;;;4.65;2.47;;;18.70;99.90;;;;;;5075197;28;20165;-67
2022/07/28 08:50:03;;;;;;;4.38;2.08;;;18.70;99.90;;;;;;5075195;28;20201;-67
2022/07/28 08:52:31;;;;;;;3.83;2.10;;;18.80;99.90;;;;;;5090462;28;20264;-67
2022/07/28 08:55:01;;;;;;;2.92;2.33;;;19.00;99.90;;;;;;5074996;28;20247;-67
2022/07/28 08:57:30;;;;;;;4.80;2.20;;;19.20;99.90;;;;;;5090335;28;20209;-67
2022/07/28 08:59:56;;;;;;;2.33;1.98;;;19.30;99.90;;;;;;5075069;28;20598;-67
2022/07/28 09:02:25;;;;;;;3.88;2.50;;;19.40;99.90;;;;;;5074547;28;20165;-67
2022/07/28 09:04:53;;;;;;;5.70;2.47;;;19.60;99.90;;;;;;5074781;28;20193;-67
2022/07/28 09:07:19;;;;;;;5.40;2.20;;;19.60;99.90;;;;;;5074634;28;20177;-67
2022/07/28 09:09:48;;;;;;;3.95;2.05;;;19.70;99.90;;;;;;5074673;28;20173;-67
2022/07/28 09:12:14;;;;;;;5.35;2.17;;;20.00;99.90;;;;;;5074495;28;20639;-67
2022/07/28 09:14:40;;;;;;;5.13;2.20;;;20.10;99.90;;;;;;5074403;28;20204;-67
2022/07/28 09:17:06;;;;;;;3.75;2.17;;;20.30;99.90;;;;;;5074049;28;20213;-67
2022/07/28 09:19:32;;;;;;;3.60;1.92;;;20.40;99.90;;;;;;5074949;28;20174;-67
2022/07/28 09:21:58;;;;;;;4.68;2.13;;;20.60;99.90;;;;;;5074211;28;20169;-64
2022/07/28 09:24:43;;;;;;;3.08;1.90;;;20.80;99.90;;;;;;5089749;28;20193;-64
2022/07/28 09:27:13;;;;;;;4.25;2.05;;;21.00;99.90;;;;;;5074273;28;20162;-64
2022/07/28 09:29:43;;;;;;;6.55;2.60;;;21.20;99.90;;;;;;5074422;28;20287;-64
2022/07/28 09:32:12;;;;;;;4.70;2.38;;;21.30;99.90;;;;;;5074034;28;20173;-64
2022/07/28 09:34:40;;;;;;;8.90;2.22;;;21.50;99.90;;;;;;5073872;28;20248;-64
2022/07/28 09:37:17;;;;;;;4.03;1.90;;;21.50;99.90;;;;;;5073808;28;20712;-64
2022/07/28 09:39:44;;;;;;;5.68;2.25;;;21.60;99.90;;;;;;5074209;28;20165;-64
2022/07/28 09:42:09;;;;;;;2.53;1.95;;;21.70;99.90;;;;;;5074086;28;20170;-64
2022/07/28 09:44:35;;;;;;;5.53;2.00;;;21.60;99.90;;;;;;5073899;28;20269;-64
2022/07/28 09:47:20;;;;;;;4.97;2.15;;;21.80;99.90;;;;;;5073618;28;20177;-64
2022/07/28 09:49:46;;;;;;;5.97;2.17;;;21.90;99.90;;;;;;5074014;28;20220;-64
2022/07/28 09:52:12;;;;;;;2.78;1.60;;;22.00;99.90;;;;;;5074267;28;20646;-64
2022/07/28 09:54:38;;;;;;;4.40;1.80;;;22.10;99.90;;;;;;5089278;28;20198;-64
2022/07/28 09:57:08;;;;;;;3.97;1.92;;;22.30;99.90;;;;;;5073519;28;20240;-64
2022/07/28 09:59:44;;;;;;;5.35;2.08;;;22.30;99.90;;;;;;5073900;28;20162;-64
2022/07/28 10:02:11;;;;;;;5.00;2.22;;;22.40;99.90;;;;;;5088993;28;20264;-64
2022/07/28 10:04:39;;;;;;;6.45;2.20;;;22.40;99.90;;;;;;5088522;28;20209;-64
2022/07/28 10:07:06;;;;;;;5.82;2.20;;;22.50;99.90;;;;;;5073598;28;20173;-64
2022/07/28 10:09:32;;;;;;;4.22;2.38;;;22.50;99.90;;;;;;5089145;28;20177;-64
2022/07/28 10:12:21;;;;;;;7.35;2.78;;;22.50;99.90;;;;;;5089070;28;20192;-64
2022/07/28 10:14:50;;;;;;;5.00;2.03;;;22.50;99.90;;;;;;5073410;28;20272;-64
2022/07/28 10:17:29;;;;;;;7.43;2.10;;;22.30;99.90;;;;;;5073147;28;20197;-64
2022/07/28 10:20:00;;;;;;;6.97;2.13;;;22.30;99.90;;;;;;5073884;28;20237;-64
2022/07/28 10:22:32;;;;;;;3.90;2.10;;;22.40;99.90;;;;;;5073305;28;20535;-64
2022/07/28 10:25:04;;;;;;;5.03;2.22;;;22.60;99.90;;;;;;5088794;28;20197;-64
2022/07/28 10:27:31;;;;;;;3.40;1.95;;;22.70;99.90;;;;;;5073332;28;20615;-64
2022/07/28 10:29:59;;;;;;;6.15;2.03;;;22.80;99.90;;;;;;5073758;28;20262;-64
2022/07/28 10:32:28;;;;;;;6.10;2.42;;;22.90;99.90;;;;;;5073088;28;20650;-64
2022/07/28 10:35:01;;;;;;;4.63;1.85;;;22.90;99.90;;;;;;5073173;28;20232;-63
2022/07/28 10:37:29;;;;;;;6.18;2.10;;;22.90;99.90;;;;;;5073867;28;20588;-64
2022/07/28 10:40:06;;;;;;;8.95;2.20;;;23.00;99.90;;;;;;5073531;28;20294;-64
2022/07/28 10:42:32;;;;;;;3.70;1.98;;;22.90;99.90;;;;;;5088756;28;20178;-64
2022/07/28 10:44:58;;;;;;;3.05;1.58;;;23.00;99.90;;;;;;5073103;28;20234;-64
2022/07/28 10:47:26;;;;;;;7.00;2.20;;;23.10;99.90;;;;;;5088406;28;20181;-64
2022/07/28 10:49:52;;;;;;;5.90;1.90;;;23.10;99.90;;;;;;5088681;28;20181;-64
2022/07/28 10:52:19;;;;;;;6.78;2.10;;;23.20;99.90;;;;;;5073117;28;20178;-64
2022/07/28 10:54:57;;;;;;;3.92;2.03;;;23.10;99.90;;;;;;5073543;28;20202;-64
2022/07/28 10:57:23;;;;;;;3.63;1.60;;;23.20;99.90;;;;;;5072989;28;20200;-64
2022/07/28 11:00:04;;;;;;;2.88;1.73;;;23.30;99.90;;;;;;5072952;28;20219;-64
2022/07/28 11:02:53;;;;;;;3.78;2.25;;;23.20;99.90;;;;;;5072900;28;20146;-64
2022/07/28 11:05:31;;;;;;;5.20;1.90;;;23.30;99.90;;;;;;5072958;28;20194;-64
2022/07/28 11:07:59;;;;;;;8.80;2.00;;;23.40;99.90;;;;;;5073004;28;20253;-64
2022/07/28 11:10:27;;;;;;;5.20;2.00;;;23.50;99.90;;;;;;5073179;28;20181;-64
2022/07/28 11:12:56;;;;;;;6.32;2.30;;;23.60;99.90;;;;;;5072917;28;20296;-64
2022/07/28 11:15:34;;;;;;;5.40;2.03;;;23.60;99.90;;;;;;5073154;28;20185;-65
2022/07/28 11:18:08;;;;;;;4.60;1.70;;;23.70;99.90;;;;;;5076524;28;20657;-64
2022/07/28 11:20:55;;;;;;;3.78;2.00;;;23.90;99.90;;;;;;5076845;28;20632;-64
2022/07/28 11:23:42;;;;;;;6.53;2.20;;;24.00;99.90;;;;;;5076461;28;20639;-64
2022/07/28 11:26:22;;;;;;;4.90;1.80;;;24.00;99.90;;;;;;5092126;28;20174;-64
2022/07/28 11:29:02;;;;;;;4.18;1.70;;;24.10;99.90;;;;;;5076485;28;20182;-64
2022/07/28 11:31:43;;;;;;;3.78;1.80;;;24.30;99.90;;;;;;5091796;28;20174;-64
2022/07/28 11:34:13;;;;;;;2.88;1.90;;;24.30;99.90;;;;;;5076173;28;20229;-64
2022/07/28 11:37:08;;;;;;;3.67;1.58;;;24.30;99.90;;;;;;5077201;28;20235;-64
2022/07/28 11:39:38;;;;;;;8.15;1.95;;;24.40;99.90;;;;;;5076375;28;20185;-64
2022/07/28 11:42:27;;;;;;;4.97;2.03;;;24.60;99.90;;;;;;5076288;28;20177;-64
2022/07/28 11:44:55;;;;;;;2.67;1.30;;;24.70;99.90;;;;;;5076950;28;20197;-64
2022/07/28 11:47:25;;;;;;;3.22;1.85;;;24.90;99.90;;;;;;5075942;28;20258;-64
2022/07/28 11:50:10;;;;;;;6.80;1.83;;;25.10;99.90;;;;;;5076179;28;20522;-64
2022/07/28 11:52:37;;;;;;;4.47;1.75;;;25.30;99.90;;;;;;5076011;28;20203;-64
2022/07/28 11:55:04;;;;;;;8.40;1.98;;;25.50;99.90;;;;;;5075962;28;20186;-64
2022/07/28 11:57:38;;;;;;;6.30;1.73;;;25.70;99.90;;;;;;5075999;28;20205;-64
2022/07/28 12:00:05;;;;;;;6.10;1.50;;;25.80;99.90;;;;;;5076237;28;20160;-64
2022/07/28 12:02:33;;;;;;;2.40;1.50;;;25.90;99.90;;;;;;5075805;28;20200;-64
2022/07/28 12:05:10;;;;;;;5.20;1.60;;;26.00;99.90;;;;;;5091343;28;20247;-64
2022/07/28 12:07:42;;;;;;;4.43;1.92;;;26.00;99.90;;;;;;5091412;28;20205;-64
2022/07/28 12:10:34;;;;;;;3.80;1.58;;;25.90;99.90;;;;;;5091414;28;20205;-64
2022/07/28 12:13:06;;;;;;;3.53;1.70;;;26.10;99.90;;;;;;5075737;28;20173;-64
2022/07/28 12:15:33;;;;;;;5.43;1.73;;;26.20;99.90;;;;;;5091093;28;20201;-65
2022/07/28 12:18:00;;;;;;;4.32;1.83;;;26.50;99.90;;;;;;5075435;28;20186;-65
2022/07/28 12:20:30;;;;;;;3.78;1.50;;;26.50;99.90;;;;;;5076286;28;20586;-64
2022/07/28 12:23:03;;;;;;;2.53;1.67;;;26.70;99.90;;;;;;5076490;28;20196;-65
2022/07/28 12:25:29;;;;;;;8.93;1.70;;;27.00;99.90;;;;;;5075710;28;20190;-65
2022/07/28 12:27:55;;;;;;;5.82;1.70;;;27.00;99.90;;;;;;5090771;28;20178;-65
2022/07/28 12:30:25;;;;;;;2.60;1.50;;;27.00;99.90;;;;;;5075556;28;20174;-65
2022/07/28 12:32:52;;;;;;;4.55;2.17;;;27.10;99.90;;;;;;5090842;28;20181;-65
2022/07/28 12:35:18;;;;;;;3.50;1.65;;;27.00;99.90;;;;;;5090837;28;20201;-64
2022/07/28 12:37:49;;;;;;;4.57;1.83;;;26.90;99.90;;;;;;5090978;28;20233;-64
2022/07/28 12:40:19;;;;;;;7.03;1.83;;;26.80;99.90;;;;;;5075323;28;20216;-65
2022/07/28 12:42:50;;;;;;;3.25;1.75;;;27.00;99.90;;;;;;5075802;28;20160;-65
2022/07/28 12:45:15;;;;;;;3.63;1.83;;;26.90;99.90;;;;;;5075272;28;20228;-65
2022/07/28 12:47:41;;;;;;;4.00;1.73;;;26.90;99.90;;;;;;5074930;28;20203;-65
2022/07/28 12:50:13;;;;;;;3.72;1.58;;;26.90;99.90;;;;;;5075053;28;20658;-65
2022/07/28 12:52:42;;;;;;;4.07;1.70;;;27.00;99.90;;;;;;5075368;28;20541;-64
2022/07/28 12:55:25;;;;;;;6.93;1.85;;;26.80;99.90;;;;;;5090517;28;20197;-64
2022/07/28 12:57:52;;;;;;;3.72;1.50;;;27.00;99.90;;;;;;5075096;28;20194;-65